createdAt,value
2023-01-11T00:01:06.598Z,92.50
2023-01-11T00:03:31.095Z,92.30
2023-01-11T00:05:58.493Z,92.40
2023-01-11T00:08:24.413Z,92.40
2023-01-11T00:10:47.835Z,91.30
2023-01-11T00:13:11.088Z,91.40
2023-01-11T00:15:36.307Z,91.70
2023-01-11T00:17:59.790Z,91.70
2023-01-11T00:20:23.124Z,91.70
2023-01-11T00:22:46.469Z,91.80
2023-01-11T00:25:11.597Z,92.00
2023-01-11T00:27:35.235Z,92.10
2023-01-11T00:29:58.509Z,91.60
2023-01-11T00:32:21.780Z,91.80
2023-01-11T00:34:45.028Z,91.70
2023-01-11T00:37:08.255Z,91.80
2023-01-11T00:39:31.718Z,91.50
2023-01-11T00:42:13.641Z,91.40
2023-01-11T00:44:54.451Z,91.60
2023-01-11T00:47:36.149Z,91.50
2023-01-11T00:49:59.563Z,91.50
2023-01-11T00:52:22.914Z,91.10
2023-01-11T00:54:46.186Z,90.90
2023-01-11T00:57:11.597Z,90.90
2023-01-11T00:59:35.048Z,91.10
2023-01-11T01:01:58.328Z,91.30
2023-01-11T01:04:21.655Z,90.90
2023-01-11T01:06:45.083Z,90.90
2023-01-11T01:09:08.397Z,90.30
2023-01-11T01:11:31.647Z,90.40
2023-01-11T01:14:13.834Z,90.70
2023-01-11T01:16:37.673Z,90.40
2023-01-11T01:19:01.232Z,90.60
2023-01-11T01:21:24.921Z,90.90
2023-01-11T01:23:48.145Z,90.30
2023-01-11T01:26:11.450Z,90.20
2023-01-11T01:28:34.856Z,90.20
2023-01-11T01:30:59.692Z,90.80
2023-01-11T01:33:23.167Z,91.00
2023-01-11T01:35:46.727Z,90.40
2023-01-11T01:38:09.977Z,90.80
2023-01-11T01:40:33.295Z,91.20
2023-01-11T01:42:56.588Z,90.80
2023-01-11T01:45:25.536Z,90.70
2023-01-11T01:47:54.956Z,91.10
2023-01-11T01:50:24.434Z,90.60
2023-01-11T01:52:51.401Z,91.00
2023-01-11T01:55:24.492Z,90.40
2023-01-11T01:57:48.251Z,90.80
2023-01-11T02:00:13.168Z,90.90
2023-01-11T02:02:39.467Z,90.80
2023-01-11T02:05:04.808Z,90.80
2023-01-11T02:07:32.949Z,91.40
2023-01-11T02:10:02.278Z,91.80
2023-01-11T02:12:30.069Z,92.10
2023-01-11T02:14:55.548Z,92.30
2023-01-11T02:17:18.977Z,92.40
2023-01-11T02:19:59.015Z,92.30
2023-01-11T02:23:12.684Z,92.50
2023-01-11T02:26:38.717Z,92.70
2023-01-11T02:29:11.993Z,92.70
2023-01-11T02:31:41.308Z,92.70
2023-01-11T02:34:21.883Z,92.40
2023-01-11T02:37:01.936Z,92.50
2023-01-11T02:39:35.931Z,92.60
2023-01-11T02:42:26.357Z,92.60
2023-01-11T02:45:03.472Z,92.80
2023-01-11T02:47:34.299Z,92.80
2023-01-11T02:50:05.247Z,92.80
2023-01-11T02:52:36.682Z,92.90
2023-01-11T02:55:02.364Z,93.00
2023-01-11T02:57:29.396Z,92.80
2023-01-11T02:59:57.888Z,92.90
2023-01-11T03:02:21.242Z,92.70
2023-01-11T03:04:45.241Z,92.50
2023-01-11T03:07:33.604Z,92.60
2023-01-11T03:10:12.422Z,92.90
2023-01-11T03:12:57.641Z,92.50
2023-01-11T03:15:48.473Z,92.20
2023-01-11T03:18:29.239Z,92.60
2023-01-11T03:21:00.871Z,92.60
2023-01-11T03:23:33.327Z,92.70
2023-01-11T03:26:01.919Z,93.00
2023-01-11T03:28:36.801Z,93.50
2023-01-11T03:31:06.723Z,93.90
2023-01-11T03:33:38.837Z,93.70
2023-01-11T03:36:12.435Z,93.80
2023-01-11T03:38:42.552Z,94.20
2023-01-11T03:41:10.440Z,94.30
2023-01-11T03:43:37.989Z,94.40
2023-01-11T03:46:07.918Z,94.70
2023-01-11T03:48:37.508Z,94.80
2023-01-11T03:51:02.847Z,94.90
2023-01-11T03:53:28.935Z,95.10
2023-01-11T03:55:56.915Z,95.10
2023-01-11T03:58:20.259Z,95.20
2023-01-11T04:00:43.991Z,95.00
2023-01-11T04:03:09.707Z,94.90
2023-01-11T04:05:34.044Z,94.90
2023-01-11T04:07:57.462Z,94.90
2023-01-11T04:10:20.761Z,94.90
2023-01-11T04:12:44.034Z,95.00
2023-01-11T04:15:09.489Z,95.10
2023-01-11T04:17:32.924Z,95.10
2023-01-11T04:19:57.574Z,95.20
2023-01-11T04:22:20.915Z,95.20
2023-01-11T04:24:44.181Z,95.60
2023-01-11T04:27:07.541Z,95.40
2023-01-11T04:29:30.822Z,95.80
2023-01-11T04:31:54.101Z,95.60
2023-01-11T04:34:17.610Z,95.60
2023-01-11T04:36:42.897Z,95.40
2023-01-11T04:39:10.604Z,95.40
2023-01-11T04:41:51.427Z,95.50
2023-01-11T04:44:14.884Z,95.50
2023-01-11T04:46:38.260Z,95.50
2023-01-11T04:49:01.708Z,95.40
2023-01-11T04:51:25.106Z,95.60
2023-01-11T04:53:50.536Z,95.40
2023-01-11T04:56:13.802Z,95.50
2023-01-11T04:58:38.277Z,95.40
2023-01-11T05:01:02.095Z,95.30
2023-01-11T05:03:25.548Z,95.20
2023-01-11T05:05:57.163Z,95.20
2023-01-11T05:08:20.471Z,95.30
2023-01-11T05:10:45.151Z,95.40
2023-01-11T05:13:08.505Z,95.30
2023-01-11T05:15:31.808Z,95.40
2023-01-11T05:17:55.324Z,95.10
2023-01-11T05:20:18.906Z,95.30
2023-01-11T05:22:42.156Z,95.10
2023-01-11T05:25:06.768Z,95.00
2023-01-11T05:27:31.389Z,95.10
2023-01-11T05:29:55.097Z,95.00
2023-01-11T05:32:18.328Z,95.10
2023-01-11T05:34:41.642Z,95.20
2023-01-11T05:37:04.967Z,95.30
2023-01-11T05:39:28.454Z,95.30
2023-01-11T05:41:51.720Z,95.30
2023-01-11T05:44:33.960Z,95.20
2023-01-11T05:46:57.399Z,94.90
2023-01-11T05:49:20.868Z,95.00
2023-01-11T05:51:45.103Z,94.90
2023-01-11T05:54:12.757Z,94.60
2023-01-11T05:56:36.171Z,94.30
2023-01-11T05:58:59.681Z,94.00
2023-01-11T06:01:26.407Z,94.20
2023-01-11T06:03:49.962Z,94.00
2023-01-11T06:06:13.399Z,94.00
2023-01-11T06:08:36.644Z,94.30
2023-01-11T06:11:00.525Z,94.20
2023-01-11T06:13:30.372Z,94.10
2023-01-11T06:15:53.999Z,94.20
2023-01-11T06:18:18.779Z,94.50
2023-01-11T06:20:42.176Z,94.60
2023-01-11T06:23:05.617Z,94.50
2023-01-11T06:25:30.329Z,94.50
2023-01-11T06:27:54.891Z,94.20
2023-01-11T06:30:20.379Z,94.00
2023-01-11T06:32:43.664Z,94.00
2023-01-11T06:35:09.437Z,94.20
2023-01-11T06:37:32.768Z,94.00
2023-01-11T06:39:56.181Z,94.30
2023-01-11T06:42:19.494Z,94.40
2023-01-11T06:44:42.743Z,94.10
2023-01-11T06:47:06.191Z,94.20
2023-01-11T06:49:29.448Z,93.90
2023-01-11T06:51:54.100Z,94.30
2023-01-11T06:54:21.908Z,94.30
2023-01-11T06:56:45.225Z,94.50
2023-01-11T06:59:08.625Z,94.60
2023-01-11T07:01:32.391Z,94.70
2023-01-11T07:03:55.858Z,94.50
2023-01-11T07:06:19.231Z,94.50
2023-01-11T07:08:43.803Z,94.40
2023-01-11T07:11:07.398Z,94.50
2023-01-11T07:13:30.701Z,94.70
2023-01-11T07:15:54.221Z,94.50
2023-01-11T07:18:18.490Z,94.30
2023-01-11T07:20:42.105Z,94.00
2023-01-11T07:23:05.446Z,94.10
2023-01-11T07:25:31.370Z,94.10
2023-01-11T07:27:58.850Z,93.90
2023-01-11T07:30:22.422Z,94.00
2023-01-11T07:32:45.659Z,93.50
2023-01-11T07:35:10.303Z,93.60
2023-01-11T07:37:34.181Z,93.90
2023-01-11T07:39:57.490Z,93.90
2023-01-11T07:42:54.179Z,93.90
2023-01-11T07:45:17.551Z,93.90
2023-01-11T07:47:41.451Z,93.60
2023-01-11T07:50:06.058Z,93.60
2023-01-11T07:52:29.312Z,93.70
2023-01-11T07:54:52.628Z,93.70
2023-01-11T07:57:15.836Z,93.60
2023-01-11T07:59:40.506Z,93.70
2023-01-11T08:02:03.866Z,93.70
2023-01-11T08:04:27.548Z,93.50
2023-01-11T08:06:50.773Z,93.60
2023-01-11T08:09:14.272Z,93.70
2023-01-11T08:11:55.417Z,93.00
2023-01-11T08:14:36.111Z,93.10
2023-01-11T08:17:00.887Z,93.00
2023-01-11T08:19:24.276Z,93.20
2023-01-11T08:21:47.656Z,93.00
2023-01-11T08:24:11.187Z,93.10
2023-01-11T08:26:34.490Z,92.80
2023-01-11T08:28:57.867Z,92.60
2023-01-11T08:31:21.447Z,92.40
2023-01-11T08:33:46.336Z,92.70
2023-01-11T08:36:12.489Z,92.70
2023-01-11T08:38:36.176Z,92.30
2023-01-11T08:40:59.519Z,91.70
2023-01-11T08:43:22.725Z,91.70
2023-01-11T08:45:46.070Z,90.00
2023-01-11T08:48:09.438Z,89.40
2023-01-11T08:50:34.088Z,90.40
2023-01-11T08:52:57.405Z,89.80
2023-01-11T08:55:21.112Z,90.10
2023-01-11T08:57:44.414Z,90.10
2023-01-11T09:00:10.308Z,90.70
2023-01-11T09:02:33.793Z,90.30
2023-01-11T09:04:57.272Z,89.30
2023-01-11T09:07:22.010Z,89.30
2023-01-11T09:09:45.272Z,89.00
2023-01-11T09:12:08.912Z,89.80
2023-01-11T09:14:32.253Z,89.90
2023-01-11T09:16:56.362Z,89.30
2023-01-11T09:19:19.899Z,89.20
2023-01-11T09:21:43.346Z,88.80
2023-01-11T09:24:08.799Z,89.20
2023-01-11T09:26:32.380Z,88.80
2023-01-11T09:28:55.658Z,88.70
2023-01-11T09:31:19.177Z,88.60
2023-01-11T09:33:42.534Z,88.80
2023-01-11T09:36:06.569Z,88.70
2023-01-11T09:38:30.925Z,88.50
2023-01-11T09:41:04.493Z,88.70
2023-01-11T09:43:30.333Z,88.50
2023-01-11T09:45:56.020Z,88.10
2023-01-11T09:48:28.794Z,88.20
2023-01-11T09:50:52.217Z,88.90
2023-01-11T09:53:27.235Z,88.70
2023-01-11T09:55:54.161Z,89.00
2023-01-11T09:58:43.024Z,87.90
2023-01-11T10:01:14.714Z,88.30
2023-01-11T10:04:41.750Z,88.30
2023-01-11T10:07:22.958Z,88.10
2023-01-11T10:18:27.916Z,87.50
2023-01-11T10:19:31.503Z,86.80
2023-01-11T10:21:54.717Z,86.20
2023-01-11T10:24:25.811Z,85.80
2023-01-11T10:26:52.018Z,86.50
2023-01-11T10:29:39.807Z,86.60
2023-01-11T10:32:18.752Z,87.20
2023-01-11T10:35:13.729Z,88.00
2023-01-11T10:37:59.664Z,86.80
2023-01-11T10:40:40.022Z,87.20
2023-01-11T10:43:14.127Z,86.80
2023-01-11T10:45:43.450Z,87.00
2023-01-11T10:48:16.463Z,86.70
2023-01-11T10:50:48.182Z,87.30
2023-01-11T10:53:20.600Z,86.50
2023-01-11T10:55:52.176Z,85.70
2023-01-11T10:58:37.985Z,85.00
2023-01-11T11:01:17.028Z,84.60
2023-01-11T11:03:54.982Z,85.30
2023-01-11T11:06:32.807Z,85.30
2023-01-11T11:09:05.965Z,84.40
2023-01-11T11:11:37.969Z,84.00
2023-01-11T11:14:10.403Z,84.40
2023-01-11T11:17:00.042Z,84.00
2023-01-11T11:19:31.495Z,84.00
2023-01-11T11:21:54.741Z,84.30
2023-01-11T11:24:27.782Z,84.60
2023-01-11T11:27:17.576Z,84.20
2023-01-11T11:29:50.480Z,82.70
2023-01-11T11:32:24.307Z,82.20
2023-01-11T11:34:50.419Z,82.00
2023-01-11T11:37:26.601Z,81.40
2023-01-11T11:39:52.132Z,81.20
2023-01-11T11:42:18.369Z,80.60
2023-01-11T11:44:41.703Z,80.30
2023-01-11T11:47:07.546Z,80.90
2023-01-11T11:49:32.690Z,80.90
2023-01-11T11:51:58.347Z,80.30
2023-01-11T11:54:28.001Z,79.80
2023-01-11T11:56:51.700Z,79.50
2023-01-11T11:59:19.444Z,81.10
2023-01-11T12:01:47.142Z,80.40
2023-01-11T12:04:16.583Z,80.00
2023-01-11T12:06:41.654Z,78.80
2023-01-11T12:09:13.920Z,78.50
2023-01-11T12:11:42.157Z,77.50
2023-01-11T12:14:19.786Z,77.60
2023-01-11T12:16:45.428Z,76.50
2023-01-11T12:19:29.266Z,77.20
2023-01-11T12:21:53.001Z,77.10
2023-01-11T12:24:19.681Z,76.40
2023-01-11T12:26:59.375Z,77.40
2023-01-11T12:30:08.689Z,77.20
2023-01-11T12:33:14.887Z,77.40
2023-01-11T12:35:51.552Z,77.10
2023-01-11T12:38:44.072Z,77.90
2023-01-11T12:41:50.182Z,77.40
2023-01-11T12:44:21.568Z,77.30
2023-01-11T12:46:59.411Z,77.60
2023-01-11T12:49:35.946Z,77.10
2023-01-11T12:52:27.710Z,78.10
2023-01-11T12:55:21.638Z,77.70
2023-01-11T12:58:01.027Z,77.70
2023-01-11T13:00:39.906Z,76.50
2023-01-11T13:03:34.201Z,76.00
2023-01-11T13:06:08.153Z,76.60
2023-01-11T13:08:48.919Z,75.20
2023-01-11T13:11:35.912Z,74.70
2023-01-11T13:14:26.968Z,75.80
2023-01-11T13:17:01.753Z,74.70
2023-01-11T13:19:32.772Z,75.00
2023-01-11T13:21:59.385Z,74.40
2023-01-11T13:24:29.890Z,74.60
2023-01-11T13:26:56.258Z,74.40
2023-01-11T13:29:28.904Z,74.60
2023-01-11T13:31:54.337Z,76.00
2023-01-11T13:34:26.047Z,75.10
2023-01-11T13:36:55.715Z,75.40
2023-01-11T13:39:28.371Z,74.30
2023-01-11T13:41:56.533Z,74.40
2023-01-11T13:44:26.196Z,73.10
2023-01-11T13:47:01.733Z,73.60
2023-01-11T13:49:49.778Z,74.20
2023-01-11T13:52:15.432Z,73.50
2023-01-11T13:54:49.137Z,73.60
2023-01-11T13:57:23.610Z,73.50
2023-01-11T13:59:54.832Z,73.70
2023-01-11T14:02:25.495Z,74.70
2023-01-11T14:04:55.341Z,73.40
2023-01-11T14:07:36.591Z,72.50
2023-01-11T14:10:24.786Z,72.70
2023-01-11T14:13:06.668Z,72.10
2023-01-11T14:15:38.038Z,71.70
2023-01-11T14:18:19.623Z,71.80
2023-01-11T14:20:58.158Z,70.70
2023-01-11T14:23:25.198Z,71.00
2023-01-11T14:26:18.771Z,71.00
2023-01-11T14:29:00.083Z,69.90
2023-01-11T14:32:11.110Z,71.00
2023-01-11T14:35:03.952Z,71.00
2023-01-11T14:38:13.487Z,70.70
2023-01-11T14:40:57.055Z,71.60
2023-01-11T14:43:57.179Z,70.50
2023-01-11T14:46:51.868Z,69.80
2023-01-11T14:49:32.796Z,70.70
2023-01-11T14:52:00.140Z,70.00
2023-01-11T14:54:28.136Z,69.90
2023-01-11T14:56:55.675Z,70.10
2023-01-11T14:59:43.036Z,71.30
2023-01-11T15:02:27.601Z,70.10
2023-01-11T15:05:36.324Z,70.70
2023-01-11T15:08:21.020Z,70.40
2023-01-11T15:10:57.813Z,69.70
2023-01-11T15:13:25.484Z,71.50
2023-01-11T15:16:07.065Z,70.40
2023-01-11T15:18:31.646Z,70.20
2023-01-11T15:20:59.102Z,71.90
2023-01-11T15:23:23.381Z,71.00
2023-01-11T15:25:49.346Z,71.90
2023-01-11T15:28:46.365Z,72.30
2023-01-11T15:31:39.200Z,71.20
2023-01-11T15:34:06.456Z,73.40
2023-01-11T15:37:09.231Z,73.00
2023-01-11T15:39:40.108Z,72.90
2023-01-11T15:42:29.609Z,73.30
2023-01-11T15:45:25.580Z,74.20
2023-01-11T15:48:12.384Z,72.80
2023-01-11T15:51:15.545Z,73.40
2023-01-11T15:54:27.733Z,73.00
2023-01-11T15:57:39.807Z,73.40
2023-01-11T16:00:41.611Z,73.70
2023-01-11T16:03:29.403Z,74.30
2023-01-11T16:06:03.959Z,74.50
2023-01-11T16:08:33.872Z,75.40
2023-01-11T16:11:20.459Z,75.10
2023-01-11T16:14:04.093Z,74.90
2023-01-11T16:16:32.004Z,74.60
2023-01-11T16:19:00.130Z,75.40
2023-01-11T16:21:34.625Z,75.10
2023-01-11T16:23:58.323Z,74.60
2023-01-11T16:26:23.566Z,75.50
2023-01-11T16:28:52.797Z,74.50
2023-01-11T16:31:16.168Z,74.40
2023-01-11T16:33:39.458Z,73.60
2023-01-11T16:36:14.160Z,73.40
2023-01-11T16:38:48.049Z,73.80
2023-01-11T16:41:15.403Z,73.40
2023-01-11T16:43:49.012Z,73.40
2023-01-11T16:47:07.030Z,72.50
2023-01-11T16:49:30.489Z,72.50
2023-01-11T16:51:54.459Z,73.00
2023-01-11T16:54:24.981Z,72.90
2023-01-11T16:56:50.363Z,73.60
2023-01-11T16:59:26.363Z,73.60
2023-01-11T17:01:52.615Z,73.70
2023-01-11T17:04:29.328Z,74.00
2023-01-11T17:06:52.719Z,74.30
2023-01-11T17:09:22.069Z,74.70
2023-01-11T17:11:48.630Z,75.20
2023-01-11T17:14:53.518Z,75.90
2023-01-11T17:17:17.603Z,75.60
2023-01-11T17:19:46.229Z,75.40
2023-01-11T17:22:18.638Z,76.20
2023-01-11T17:24:50.873Z,77.10
2023-01-11T17:27:22.124Z,76.70
2023-01-11T17:29:48.251Z,77.10
2023-01-11T17:32:19.878Z,77.40
2023-01-11T17:34:44.053Z,77.60
2023-01-11T17:37:10.880Z,78.00
2023-01-11T17:39:36.813Z,78.40
2023-01-11T17:42:20.125Z,78.30
2023-01-11T17:45:03.398Z,78.50
2023-01-11T17:47:27.224Z,78.10
2023-01-11T17:49:52.558Z,78.30
2023-01-11T17:52:23.219Z,79.10
2023-01-11T17:54:46.726Z,79.30
2023-01-11T17:57:11.717Z,79.20
2023-01-11T17:59:35.114Z,78.90
2023-01-11T18:02:03.922Z,79.40
2023-01-11T18:04:29.103Z,79.20
2023-01-11T18:06:56.547Z,79.20
2023-01-11T18:09:26.592Z,79.00
2023-01-11T18:11:51.792Z,79.30
2023-01-11T18:14:21.187Z,79.20
2023-01-11T18:17:00.290Z,79.40
2023-01-11T18:19:32.410Z,79.30
2023-01-11T18:21:56.371Z,79.50
2023-01-11T18:24:34.814Z,79.50
2023-01-11T18:27:19.564Z,78.90
2023-01-11T18:29:53.104Z,78.40
2023-01-11T18:32:18.649Z,77.90
2023-01-11T18:34:44.144Z,78.10
2023-01-11T18:37:07.714Z,78.60
2023-01-11T18:39:31.027Z,78.20
2023-01-11T18:42:10.859Z,78.50
2023-01-11T18:44:35.190Z,79.00
2023-01-11T18:46:58.413Z,78.90
2023-01-11T18:49:23.657Z,78.10
2023-01-11T18:51:46.888Z,78.10
2023-01-11T18:54:16.364Z,77.80
2023-01-11T18:56:39.793Z,78.10
2023-01-11T18:59:03.388Z,78.40
2023-01-11T19:01:26.809Z,78.30
2023-01-11T19:03:50.429Z,78.00
2023-01-11T19:06:15.933Z,78.50
2023-01-11T19:08:39.173Z,78.40
2023-01-11T19:11:03.999Z,78.00
2023-01-11T19:13:27.392Z,77.60
2023-01-11T19:15:51.796Z,77.70
2023-01-11T19:18:15.943Z,77.90
2023-01-11T19:20:40.831Z,77.40
2023-01-11T19:23:05.529Z,77.60
2023-01-11T19:25:29.077Z,78.50
2023-01-11T19:27:54.813Z,77.70
2023-01-11T19:30:19.065Z,77.90
2023-01-11T19:32:42.337Z,78.10
2023-01-11T19:35:08.225Z,78.10
2023-01-11T19:37:32.454Z,77.80
2023-01-11T19:39:57.396Z,77.70
2023-01-11T19:42:21.106Z,78.00
2023-01-11T19:44:44.478Z,78.10
2023-01-11T19:47:12.748Z,78.00
2023-01-11T19:49:36.520Z,78.30
2023-01-11T19:52:00.609Z,77.70
2023-01-11T19:54:25.075Z,78.30
2023-01-11T19:56:50.110Z,77.50
2023-01-11T19:59:13.445Z,77.30
2023-01-11T20:01:36.776Z,77.60
2023-01-11T20:04:00.773Z,77.80
2023-01-11T20:06:24.148Z,78.20
2023-01-11T20:08:47.548Z,78.10
2023-01-11T20:11:14.297Z,78.40
2023-01-11T20:13:39.112Z,77.90
2023-01-11T20:16:07.301Z,77.40
2023-01-11T20:18:30.701Z,77.90
2023-01-11T20:20:57.040Z,77.20
2023-01-11T20:23:20.459Z,77.50
2023-01-11T20:25:43.823Z,77.50
2023-01-11T20:28:07.140Z,77.30
2023-01-11T20:30:31.746Z,77.70
2023-01-11T20:32:55.079Z,77.10
2023-01-11T20:35:18.636Z,76.90
2023-01-11T20:37:41.946Z,77.20
2023-01-11T20:40:07.031Z,76.90
2023-01-11T20:42:31.664Z,76.90
2023-01-11T20:44:55.174Z,77.40
2023-01-11T20:47:19.938Z,77.60
2023-01-11T20:49:43.372Z,77.00
2023-01-11T20:52:07.132Z,76.70
2023-01-11T20:54:30.514Z,76.30
2023-01-11T20:56:54.059Z,76.60
2023-01-11T20:59:20.097Z,76.60
2023-01-11T21:01:44.198Z,76.80
2023-01-11T21:04:11.533Z,77.30
2023-01-11T21:06:37.501Z,78.10
2023-01-11T21:09:02.981Z,78.30
2023-01-11T21:11:27.074Z,78.70
2023-01-11T21:13:53.545Z,77.60
2023-01-11T21:16:17.974Z,78.40
2023-01-11T21:18:43.793Z,77.90
2023-01-11T21:21:14.114Z,77.10
2023-01-11T21:23:37.395Z,78.10
2023-01-11T21:26:00.622Z,77.60
2023-01-11T21:28:24.084Z,77.80
2023-01-11T21:30:47.342Z,77.60
2023-01-11T21:33:10.558Z,77.70
2023-01-11T21:35:35.348Z,77.70
2023-01-11T21:38:00.003Z,77.50
2023-01-11T21:40:23.252Z,77.50
2023-01-11T21:42:46.824Z,77.90
2023-01-11T21:45:12.085Z,77.90
2023-01-11T21:47:35.463Z,77.30
2023-01-11T21:49:59.561Z,78.00
2023-01-11T21:52:22.843Z,78.20
2023-01-11T21:54:48.405Z,79.10
2023-01-11T21:57:11.649Z,79.70
2023-01-11T21:59:35.769Z,79.20
2023-01-11T22:01:59.106Z,78.50
2023-01-11T22:04:22.852Z,79.00
2023-01-11T22:06:51.437Z,78.90
2023-01-11T22:09:15.396Z,80.00
2023-01-11T22:11:40.664Z,80.40
2023-01-11T22:14:08.450Z,80.40
2023-01-11T22:16:33.661Z,81.30
2023-01-11T22:18:57.003Z,81.80
2023-01-11T22:21:21.569Z,81.50
2023-01-11T22:23:45.795Z,82.70
2023-01-11T22:26:12.223Z,83.30
2023-01-11T22:28:57.201Z,84.70
2023-01-11T22:31:20.686Z,85.60
2023-01-11T22:33:44.054Z,85.80
2023-01-11T22:36:09.409Z,86.50
2023-01-11T22:38:33.746Z,87.00
2023-01-11T22:41:01.129Z,87.70
2023-01-11T22:43:24.478Z,88.00
2023-01-11T22:45:58.617Z,88.30
2023-01-11T22:48:21.959Z,88.10
2023-01-11T22:50:45.177Z,88.00
2023-01-11T22:53:08.425Z,88.40
2023-01-11T22:55:34.241Z,88.30
2023-01-11T22:57:58.140Z,88.70
2023-01-11T23:00:22.189Z,89.50
2023-01-11T23:02:47.239Z,88.50
2023-01-11T23:05:10.780Z,89.10
2023-01-11T23:07:34.508Z,89.20
2023-01-11T23:09:57.863Z,88.30
2023-01-11T23:12:50.226Z,88.80
2023-01-11T23:15:13.947Z,89.50
2023-01-11T23:17:37.405Z,89.20
2023-01-11T23:20:02.136Z,89.60
2023-01-11T23:22:25.354Z,89.80
2023-01-11T23:24:48.751Z,90.00
2023-01-11T23:27:12.047Z,89.90
2023-01-11T23:29:35.580Z,90.20
2023-01-11T23:31:58.958Z,90.60
2023-01-11T23:34:22.277Z,91.10
2023-01-11T23:36:47.005Z,90.60
2023-01-11T23:39:14.283Z,90.90
2023-01-11T23:41:55.472Z,91.00
2023-01-11T23:44:19.743Z,90.50
2023-01-11T23:47:00.980Z,90.40
2023-01-11T23:49:25.191Z,90.30
2023-01-11T23:51:50.253Z,90.90
2023-01-11T23:54:14.397Z,90.20
2023-01-11T23:56:37.971Z,90.00
2023-01-11T23:59:02.035Z,90.60
